Time;durP1;ratioP1;P1;durP2;ratioP2;P2;SDS_P1;SDS_P2;PMS_P1;PMS_P2;Temp;Humidity;BMP_temperature;BMP_pressure;BME280_temperature;BME280_humidity;BME280_pressure;Samples;Min_cycle;Max_cycle;Signal;HPM_P1;HPM_P2
2023/04/09 00:01:19;;;;;;;49.77;38.50;;;;;;;4.01;100.00;102852.50;5013589;28;20444;-43
2023/04/09 00:03:46;;;;;;;45.83;36.40;;;;;;;3.97;100.00;102855.44;5013655;28;20429;-45
2023/04/09 00:06:15;;;;;;;47.43;39.30;;;;;;;3.91;100.00;102860.16;5009559;28;20546;-49
2023/04/09 00:08:43;;;;;;;51.17;36.83;;;;;;;3.90;100.00;102860.28;5013787;28;20457;-45
2023/04/09 00:11:11;;;;;;;53.33;36.73;;;;;;;3.85;100.00;102860.56;5013903;28;20440;-47
2023/04/09 00:13:39;;;;;;;49.70;35.30;;;;;;;3.82;100.00;102858.13;5013404;28;20916;-45
2023/04/09 00:16:07;;;;;;;48.77;36.87;;;;;;;3.80;100.00;102859.19;5007992;28;20477;-46
2023/04/09 00:18:35;;;;;;;44.80;34.77;;;;;;;3.80;100.00;102857.41;5013532;28;20453;-44
2023/04/09 00:21:03;;;;;;;51.43;37.40;;;;;;;3.79;100.00;102850.41;5013574;28;21030;-48
2023/04/09 00:23:32;;;;;;;45.60;34.93;;;;;;;3.78;100.00;102856.66;5013318;28;20923;-45
2023/04/09 00:26:00;;;;;;;45.03;34.10;;;;;;;3.75;100.00;102854.22;5013040;28;20433;-46
2023/04/09 00:28:28;;;;;;;57.70;36.93;;;;;;;3.72;100.00;102845.66;5013270;28;20532;-46
2023/04/09 00:30:56;;;;;;;47.73;36.50;;;;;;;3.68;100.00;102852.94;5013529;28;20429;-48
2023/04/09 00:33:23;;;;;;;40.60;32.00;;;;;;;3.65;100.00;102850.50;5013297;28;20484;-45
2023/04/09 00:35:51;;;;;;;42.27;32.00;;;;;;;3.61;100.00;102849.03;5012822;28;20837;-44
2023/04/09 00:38:19;;;;;;;44.43;33.20;;;;;;;3.58;100.00;102846.59;5013425;28;20453;-45
2023/04/09 00:40:50;;;;;;;45.17;35.00;;;;;;;3.51;100.00;102840.00;5012693;28;20452;-44
2023/04/09 00:43:18;;;;;;;42.77;32.90;;;;;;;3.42;100.00;102842.38;5012419;28;20432;-47
2023/04/09 00:45:46;;;;;;;38.37;32.37;;;;;;;3.33;100.00;102847.31;5013220;28;20854;-50
2023/04/09 00:48:15;;;;;;;39.03;31.40;;;;;;;3.24;100.00;102844.41;5012535;28;20491;-46
2023/04/09 00:50:43;;;;;;;33.73;29.73;;;;;;;3.16;100.00;102842.28;5013065;28;20479;-47
2023/04/09 00:53:12;;;;;;;30.47;27.47;;;;;;;3.08;100.00;102841.91;5012898;28;20441;-47
2023/04/09 00:55:41;;;;;;;31.00;27.33;;;;;;;3.03;100.00;102835.25;5012757;28;20473;-49
2023/04/09 00:58:10;;;;;;;28.87;26.03;;;;;;;2.96;100.00;102832.13;5012365;28;20496;-48
2023/04/09 01:00:37;;;;;;;25.90;23.50;;;;;;;2.90;100.00;102829.06;5012921;28;20437;-47
2023/04/09 01:03:06;;;;;;;26.37;23.97;;;;;;;2.83;100.00;102825.97;5012833;28;20440;-47
2023/04/09 01:05:42;;;;;;;26.47;23.87;;;;;;;2.75;100.00;102833.47;5012696;28;20483;-50
2023/04/09 01:08:16;;;;;;;22.43;20.43;;;;;;;2.68;100.00;102840.94;5012320;28;20473;-46
2023/04/09 01:10:51;;;;;;;23.23;21.20;;;;;;;2.62;100.00;102832.56;5012682;28;20408;-45
2023/04/09 01:13:28;;;;;;;21.90;20.13;;;;;;;2.57;100.00;102835.47;5012472;28;20420;-47
2023/04/09 01:15:58;;;;;;;23.73;21.70;;;;;;;2.53;100.00;102835.75;5010303;28;20982;-46
2023/04/09 01:18:30;;;;;;;23.13;21.03;;;;;;;2.47;100.00;102839.63;5012672;28;20466;-45
2023/04/09 01:21:02;;;;;;;23.33;21.07;;;;;;;2.42;100.00;102832.94;5012637;28;20425;-45
2023/04/09 01:23:43;;;;;;;23.50;21.70;;;;;;;2.37;100.00;102827.94;5012578;28;20433;-45
2023/04/09 01:26:19;;;;;;;25.53;23.17;;;;;;;2.30;100.00;102834.50;5012102;28;20445;-47
2023/04/09 01:28:52;;;;;;;28.20;24.00;;;;;;;2.28;100.00;102836.38;5012159;28;20484;-47
2023/04/09 01:31:28;;;;;;;26.87;23.97;;;;;;;2.23;100.00;102831.41;5012368;28;20472;-48
2023/04/09 01:33:57;;;;;;;26.00;22.77;;;;;;;2.21;100.00;102829.81;5012576;28;21040;-46
2023/04/09 01:36:26;;;;;;;26.23;23.67;;;;;;;2.19;100.00;102827.25;5011993;28;20882;-49
2023/04/09 01:38:56;;;;;;;26.40;23.90;;;;;;;2.17;100.00;102823.03;5012439;28;20437;-48
2023/04/09 01:41:25;;;;;;;31.87;25.37;;;;;;;2.15;100.00;102824.91;5011903;28;20429;-43
2023/04/09 01:43:55;;;;;;;26.23;23.00;;;;;;;2.14;100.00;102817.94;5012600;28;20433;-49
2023/04/09 01:46:26;;;;;;;26.17;23.43;;;;;;;2.12;100.00;102823.28;5004536;28;20474;-46
2023/04/09 01:48:55;;;;;;;25.07;22.77;;;;;;;2.09;100.00;102814.75;5011998;28;20449;-46
2023/04/09 01:51:23;;;;;;;25.87;23.40;;;;;;;2.06;100.00;102812.31;5012095;28;20468;-47
2023/04/09 01:53:51;;;;;;;28.27;25.60;;;;;;;2.03;100.00;102808.03;5011653;28;20785;-45
2023/04/09 01:56:18;;;;;;;25.77;23.47;;;;;;;2.00;100.00;102812.66;5011808;28;20469;-45
2023/04/09 01:58:46;;;;;;;24.47;22.20;;;;;;;1.96;100.00;102804.09;5012321;28;20818;-44
2023/04/09 02:01:22;;;;;;;24.87;22.57;;;;;;;1.95;100.00;102809.44;5011941;28;20536;-49
2023/04/09 02:03:56;;;;;;;23.07;21.10;;;;;;;1.90;100.00;102804.47;5011986;28;20454;-45
2023/04/09 02:06:33;;;;;;;26.13;23.50;;;;;;;1.90;100.00;102817.63;5011457;28;20987;-47
2023/04/09 02:09:04;;;;;;;24.80;22.37;;;;;;;1.90;100.00;102803.63;5012325;28;20416;-45
2023/04/09 02:11:34;;;;;;;29.07;24.90;;;;;;;1.91;100.00;102810.59;5011851;28;20437;-46
2023/04/09 02:14:04;;;;;;;31.13;24.80;;;;;;;1.90;100.00;102809.72;5011861;28;20437;-45
2023/04/09 02:16:34;;;;;;;27.97;25.10;;;;;;;1.91;100.00;102805.31;5011609;28;21048;-47
2023/04/09 02:19:01;;;;;;;26.27;23.67;;;;;;;1.89;100.00;102802.75;5005170;28;20813;-46
2023/04/09 02:21:30;;;;;;;25.00;22.83;;;;;;;1.89;100.00;102808.03;5011850;28;20433;-47
2023/04/09 02:23:58;;;;;;;26.07;23.30;;;;;;;1.89;100.00;102805.41;5012065;28;20440;-43
2023/04/09 02:26:26;;;;;;;26.90;24.17;;;;;;;1.90;100.00;102804.47;5011791;28;20931;-44
2023/04/09 02:28:53;;;;;;;28.90;23.73;;;;;;;1.89;100.00;102801.91;5011346;28;20515;-46
2023/04/09 02:31:21;;;;;;;26.27;23.57;;;;;;;1.87;100.00;102809.06;5011614;28;20863;-44
2023/04/09 02:33:52;;;;;;;26.13;23.50;;;;;;;1.85;100.00;102797.78;5011700;28;20440;-45
2023/04/09 02:36:21;;;;;;;25.90;23.50;;;;;;;1.84;100.00;102796.09;5011456;28;20477;-43
2023/04/09 02:38:49;;;;;;;25.00;22.83;;;;;;;1.82;100.00;102790.94;5006163;28;20473;-45
2023/04/09 02:41:17;;;;;;;27.60;25.00;;;;;;;1.80;100.00;102794.56;5011725;28;20806;-44
2023/04/09 02:43:45;;;;;;;26.53;24.00;;;;;;;1.80;100.00;102790.16;5011380;28;20439;-46
2023/04/09 02:46:12;;;;;;;27.27;24.67;;;;;;;1.81;100.00;102791.00;5011727;28;20441;-48
2023/04/09 02:48:40;;;;;;;31.70;28.67;;;;;;;1.82;100.00;102790.06;5005728;28;20468;-45
2023/04/09 02:51:09;;;;;;;30.77;27.60;;;;;;;1.86;100.00;102800.31;5011584;28;20432;-44
2023/04/09 02:53:39;;;;;;;30.33;27.40;;;;;;;1.89;100.00;102794.88;5011308;28;20433;-45
2023/04/09 02:56:07;;;;;;;30.07;26.87;;;;;;;1.97;100.00;102791.81;5011603;28;20456;-47
2023/04/09 02:58:34;;;;;;;31.50;28.07;;;;;;;2.06;100.00;102797.34;5010810;28;20472;-43
2023/04/09 03:01:02;;;;;;;30.93;28.03;;;;;;;2.16;100.00;102795.00;5011564;28;20433;-45
2023/04/09 03:03:30;;;;;;;30.63;27.73;;;;;;;2.27;100.00;102789.09;5011200;28;20889;-44
2023/04/09 03:05:58;;;;;;;34.10;30.00;;;;;;;2.37;100.00;102788.44;5013820;28;20436;-44
2023/04/09 03:08:27;;;;;;;38.20;30.80;;;;;;;2.48;100.00;102793.06;5014403;28;20465;-45
2023/04/09 03:10:55;;;;;;;58.10;33.47;;;;;;;2.54;100.00;102782.97;5014764;28;20484;-43
2023/04/09 03:13:22;;;;;;;50.13;32.87;;;;;;;2.62;100.00;102783.38;5014574;28;20433;-43
2023/04/09 03:15:51;;;;;;;48.80;33.77;;;;;;;2.70;100.00;102777.59;5015160;28;20862;-46
2023/04/09 03:18:19;;;;;;;41.20;31.90;;;;;;;2.75;100.00;102779.00;5014492;28;20523;-45
2023/04/09 03:20:47;;;;;;;44.33;31.47;;;;;;;2.84;100.00;102782.03;5014659;28;20444;-47
2023/04/09 03:23:15;;;;;;;40.97;30.57;;;;;;;2.89;100.00;102772.88;5014620;28;20437;-45
2023/04/09 03:25:44;;;;;;;45.47;33.47;;;;;;;2.96;100.00;102775.94;5014645;28;20986;-44
2023/04/09 03:28:11;;;;;;;78.77;37.90;;;;;;;3.02;100.00;102775.53;5014125;28;20459;-45
2023/04/09 03:30:39;;;;;;;82.13;41.30;;;;;;;3.07;100.00;102771.69;5014594;28;20422;-48
2023/04/09 03:33:06;;;;;;;49.30;34.93;;;;;;;3.11;100.00;102767.91;5014291;28;20437;-46
2023/04/09 03:35:34;;;;;;;46.53;33.60;;;;;;;3.17;100.00;102771.94;5014669;28;20787;-46
2023/04/09 03:38:02;;;;;;;69.40;39.07;;;;;;;3.20;100.00;102763.81;5013730;28;20563;-44
2023/04/09 03:40:29;;;;;;;51.90;36.00;;;;;;;3.27;100.00;102765.13;5014539;28;20440;-47
2023/04/09 03:42:58;;;;;;;62.23;37.10;;;;;;;3.32;100.00;102765.66;5014282;28;20429;-44
2023/04/09 03:45:26;;;;;;;57.07;38.70;;;;;;;3.38;100.00;102765.25;5014328;28;20457;-45
2023/04/09 03:47:54;;;;;;;61.43;38.10;;;;;;;3.42;100.00;102753.56;5014212;28;20449;-47
2023/04/09 03:50:24;;;;;;;54.37;36.63;;;;;;;3.48;100.00;102754.94;5013446;28;20472;-46
2023/04/09 03:52:52;;;;;;;64.83;38.40;;;;;;;3.52;100.00;102754.66;5014143;28;20520;-43
2023/04/09 03:55:20;;;;;;;70.17;37.70;;;;;;;3.56;100.00;102748.22;5013892;28;20437;-43
2023/04/09 03:57:47;;;;;;;55.30;37.63;;;;;;;3.59;100.00;102747.16;5013961;28;20520;-43
2023/04/09 04:00:17;;;;;;;56.10;39.50;;;;;;;3.63;100.00;102749.50;5013531;28;21083;-47
2023/04/09 04:02:44;;;;;;;45.03;38.60;;;;;;;3.68;100.00;102752.66;5013777;28;20429;-49
2023/04/09 04:05:12;;;;;;;43.67;36.80;;;;;;;3.73;100.00;102755.00;5013853;28;20491;-45
2023/04/09 04:07:42;;;;;;;56.03;37.50;;;;;;;3.77;100.00;102752.03;5013940;28;20576;-44
2023/04/09 04:10:10;;;;;;;45.37;36.17;;;;;;;3.81;100.00;102758.81;5013446;28;20851;-46
2023/04/09 04:12:38;;;;;;;39.33;34.57;;;;;;;3.88;100.00;102753.97;5013565;28;20426;-48
2023/04/09 04:15:06;;;;;;;55.67;36.90;;;;;;;3.92;100.00;102760.72;5013722;28;20480;-47
2023/04/09 04:17:36;;;;;;;55.50;38.33;;;;;;;3.98;100.00;102770.84;5013298;28;20473;-46
2023/04/09 04:20:04;;;;;;;45.83;36.27;;;;;;;4.02;100.00;102766.22;5011184;28;20469;-47
2023/04/09 04:22:33;;;;;;;54.43;38.80;;;;;;;4.06;100.00;102762.44;5013681;28;20429;-48
2023/04/09 04:25:01;;;;;;;53.03;38.27;;;;;;;4.10;100.00;102775.31;5013800;28;20436;-47
2023/04/09 04:27:28;;;;;;;51.23;38.07;;;;;;;4.14;100.00;102771.50;5013394;28;20536;-49
2023/04/09 04:29:57;;;;;;;47.10;37.73;;;;;;;4.22;100.00;102778.88;5012984;28;21029;-45
2023/04/09 04:32:25;;;;;;;51.57;37.70;;;;;;;4.30;100.00;102776.59;5012991;28;20433;-45
2023/04/09 04:34:54;;;;;;;54.90;36.67;;;;;;;4.36;100.00;102773.50;5013584;28;20461;-44
2023/04/09 04:37:22;;;;;;;43.50;37.10;;;;;;;4.39;100.00;102770.66;5013232;28;20535;-46
2023/04/09 04:39:49;;;;;;;43.00;36.23;;;;;;;4.44;100.00;102782.59;5012820;28;20467;-42
2023/04/09 04:42:17;;;;;;;45.17;36.97;;;;;;;4.50;100.00;102789.25;5012820;28;20435;-46
2023/04/09 04:44:45;;;;;;;38.67;34.63;;;;;;;4.55;100.00;102784.47;5013061;28;20519;-48
2023/04/09 04:47:13;;;;;;;43.93;37.33;;;;;;;4.58;100.00;102778.97;5013158;28;20458;-45
2023/04/09 04:49:41;;;;;;;48.07;38.50;;;;;;;4.62;100.00;102782.25;5012121;28;20465;-47
2023/04/09 04:52:10;;;;;;;46.33;35.77;;;;;;;4.63;100.00;102782.13;5012696;28;20942;-47
2023/04/09 04:54:37;;;;;;;41.80;35.70;;;;;;;4.69;100.00;102781.69;5012975;28;20433;-45
2023/04/09 04:57:05;;;;;;;45.40;36.57;;;;;;;4.74;100.00;102781.38;5012650;28;20480;-44
2023/04/09 04:59:33;;;;;;;50.47;38.70;;;;;;;4.80;100.00;102786.22;5012372;28;20468;-47
2023/04/09 05:02:01;;;;;;;62.53;45.30;;;;;;;4.86;100.00;102785.78;5012621;28;20927;-45
2023/04/09 05:04:29;;;;;;;52.47;39.80;;;;;;;4.91;100.00;102784.50;5013102;28;20445;-46
2023/04/09 05:06:57;;;;;;;55.40;37.50;;;;;;;4.96;100.00;102785.00;5009308;28;20484;-48
2023/04/09 05:09:26;;;;;;;79.97;42.50;;;;;;;5.02;100.00;102773.97;5008842;28;20471;-51
2023/04/09 05:11:53;;;;;;;70.27;40.90;;;;;;;5.05;100.00;102780.03;5011582;28;20439;-47
2023/04/09 05:14:21;;;;;;;54.43;35.03;;;;;;;5.09;100.00;102773.53;5012674;28;20437;-45
2023/04/09 05:16:51;;;;;;;92.03;38.40;;;;;;;5.14;100.00;102785.47;5012422;28;20445;-47
2023/04/09 05:19:18;;;;;;;103.17;37.00;;;;;;;5.21;100.00;102783.22;5011869;28;20472;-47
2023/04/09 05:21:46;;;;;;;49.17;36.37;;;;;;;5.23;100.00;102789.22;5012183;28;20460;-45
2023/04/09 05:24:14;;;;;;;36.73;29.70;;;;;;;5.28;100.00;102785.31;5012226;28;20527;-47
2023/04/09 05:26:43;;;;;;;109.57;34.50;;;;;;;5.31;100.00;102782.44;5011340;28;20780;-47
2023/04/09 05:29:11;;;;;;;40.53;30.30;;;;;;;5.33;100.00;102785.81;5011644;28;20461;-52
2023/04/09 05:31:39;;;;;;;47.27;30.13;;;;;;;5.40;100.00;102784.41;5012161;28;20809;-45
2023/04/09 05:34:06;;;;;;;99.97;40.93;;;;;;;5.42;100.00;102790.44;5012347;28;20436;-47
2023/04/09 05:36:34;;;;;;;66.43;33.90;;;;;;;5.39;100.00;102792.47;5012355;28;20437;-48
2023/04/09 05:39:02;;;;;;;45.63;30.27;;;;;;;5.41;100.00;102791.38;5011601;28;20481;-47
2023/04/09 05:41:31;;;;;;;35.20;30.23;;;;;;;5.44;100.00;102798.25;5011812;28;20460;-47
2023/04/09 05:44:00;;;;;;;37.97;30.60;;;;;;;5.45;100.00;102794.66;5012387;28;20429;-48
2023/04/09 05:46:28;;;;;;;56.60;32.27;;;;;;;5.48;100.00;102794.41;5012096;28;20971;-49
2023/04/09 05:48:55;;;;;;;49.83;33.70;;;;;;;5.51;100.00;102802.13;5010027;28;20476;-48
2023/04/09 05:51:23;;;;;;;69.93;34.53;;;;;;;5.50;100.00;102806.56;5011627;28;20433;-48
2023/04/09 05:53:51;;;;;;;47.97;31.70;;;;;;;5.56;100.00;102799.97;5012403;28;20499;-47
2023/04/09 05:56:21;;;;;;;48.90;32.30;;;;;;;5.57;100.00;102799.88;5011173;28;20467;-44
2023/04/09 05:58:49;;;;;;;83.23;36.23;;;;;;;5.57;100.00;102801.69;5011483;28;20473;-45
2023/04/09 06:01:18;;;;;;;133.03;42.07;;;;;;;5.54;100.00;102810.69;5012039;28;20460;-47
2023/04/09 06:03:46;;;;;;;67.70;33.00;;;;;;;5.60;100.00;102804.09;5011841;28;20819;-48
2023/04/09 06:06:13;;;;;;;67.23;37.30;;;;;;;5.62;100.00;102812.75;5009220;28;20448;-51
2023/04/09 06:08:41;;;;;;;118.87;40.37;;;;;;;5.64;100.00;102818.81;5010150;28;20974;-49
2023/04/09 06:11:09;;;;;;;91.17;39.00;;;;;;;5.64;100.00;102812.66;5010726;28;20443;-45
2023/04/09 06:13:37;;;;;;;75.97;34.60;;;;;;;5.67;100.00;102815.94;5010055;28;20888;-50
2023/04/09 06:16:05;;;;;;;70.53;36.83;;;;;;;5.70;100.00;102818.34;5010240;28;20961;-46
2023/04/09 06:18:34;;;;;;;68.13;37.73;;;;;;;5.68;100.00;102822.91;5008578;28;20496;-47
2023/04/09 06:21:03;;;;;;;94.57;44.60;;;;;;;5.69;100.00;102826.38;5010719;28;20460;-50
2023/04/09 06:23:32;;;;;;;92.40;49.27;;;;;;;5.69;100.00;102823.75;5010436;28;20455;-48
2023/04/09 06:26:00;;;;;;;105.80;48.03;;;;;;;5.63;100.00;102816.25;5010431;28;20799;-48
2023/04/09 06:28:28;;;;;;;134.50;49.40;;;;;;;5.72;100.00;102823.50;5009723;28;20473;-47
2023/04/09 06:30:56;;;;;;;88.17;45.40;;;;;;;5.73;100.00;102827.84;5010476;28;20429;-47
2023/04/09 06:33:24;;;;;;;85.10;43.40;;;;;;;5.78;100.00;102828.34;5010258;28;20516;-46
2023/04/09 06:35:53;;;;;;;88.37;48.27;;;;;;;5.83;100.00;102824.41;5010205;28;20432;-51
2023/04/09 06:38:21;;;;;;;66.07;42.43;;;;;;;5.87;100.00;102823.25;5009091;28;20456;-49
2023/04/09 06:40:48;;;;;;;76.27;42.67;;;;;;;5.89;100.00;102831.91;5012219;28;20483;-46
2023/04/09 06:43:16;;;;;;;58.63;42.70;;;;;;;5.94;100.00;102827.09;5014139;28;20927;-47
2023/04/09 06:45:44;;;;;;;67.00;40.70;;;;;;;5.97;100.00;102831.34;5013626;28;20433;-47
2023/04/09 06:48:11;;;;;;;90.27;43.67;;;;;;;5.90;100.00;102830.13;5009815;28;20464;-46
2023/04/09 06:50:39;;;;;;;71.47;42.07;;;;;;;6.00;100.00;102834.59;5014394;28;20939;-47
2023/04/09 06:53:08;;;;;;;77.17;45.17;;;;;;;6.00;100.00;102829.28;5010541;28;20444;-47
2023/04/09 06:55:36;;;;;;;85.90;42.83;;;;;;;6.04;100.00;102828.09;5003954;28;20484;-50
2023/04/09 06:58:03;;;;;;;70.87;44.70;;;;;;;6.11;100.00;102831.13;5013608;28;20548;-48
2023/04/09 07:00:31;;;;;;;72.47;43.80;;;;;;;6.16;100.00;102834.28;5014475;28;20922;-50
2023/04/09 07:02:59;;;;;;;66.70;43.40;;;;;;;6.20;100.00;102829.59;5014528;28;20436;-46
2023/04/09 07:05:27;;;;;;;62.97;44.33;;;;;;;6.25;100.00;102844.16;5013979;28;20520;-50
2023/04/09 07:07:55;;;;;;;64.03;42.90;;;;;;;6.26;100.00;102840.56;5014157;28;20461;-46
2023/04/09 07:10:24;;;;;;;67.10;42.57;;;;;;;6.29;100.00;102844.78;5013799;28;20464;-48
2023/04/09 07:12:51;;;;;;;67.13;41.43;;;;;;;6.12;100.00;102838.13;5014096;28;20429;-43
2023/04/09 07:15:19;;;;;;;71.27;43.07;;;;;;;6.28;100.00;102838.63;5013091;28;20536;-44
2023/04/09 07:17:47;;;;;;;64.97;44.60;;;;;;;6.37;100.00;102837.94;5012796;28;21020;-46
2023/04/09 07:20:14;;;;;;;50.57;40.27;;;;;;;6.40;100.00;102834.19;5005703;28;20612;-51
2023/04/09 07:22:42;;;;;;;50.90;40.20;;;;;;;6.44;100.00;102839.16;5012765;28;20429;-45
2023/04/09 07:25:10;;;;;;;51.30;42.43;;;;;;;6.48;100.00;102840.56;5012562;28;20429;-46
2023/04/09 07:27:39;;;;;;;43.23;35.90;;;;;;;6.51;100.00;102845.66;5012902;28;20449;-43
2023/04/09 07:30:07;;;;;;;46.27;36.27;;;;;;;6.55;100.00;102843.59;5012863;28;20453;-47
2023/04/09 07:32:35;;;;;;;51.40;37.87;;;;;;;6.55;100.00;102841.81;5013782;28;20433;-49
2023/04/09 07:35:03;;;;;;;45.10;36.27;;;;;;;6.64;100.00;102846.38;5013601;28;20429;-45
2023/04/09 07:37:31;;;;;;;40.10;35.70;;;;;;;6.64;100.00;102845.53;5013849;28;20453;-47
2023/04/09 07:39:59;;;;;;;39.70;32.77;;;;;;;6.66;100.00;102839.16;5013043;28;20513;-51
2023/04/09 07:42:27;;;;;;;35.80;32.03;;;;;;;6.71;100.00;102835.31;5013503;28;20429;-44
2023/04/09 07:44:56;;;;;;;39.90;35.63;;;;;;;6.86;100.00;102844.69;5013402;28;20456;-45
2023/04/09 07:47:24;;;;;;;38.70;34.47;;;;;;;6.91;100.00;102840.72;5001410;28;20457;-45
2023/04/09 07:49:52;;;;;;;38.00;34.13;;;;;;;6.99;100.00;102840.94;5011515;28;20906;-43
2023/04/09 07:52:19;;;;;;;34.83;31.20;;;;;;;7.00;100.00;102832.03;5012821;28;20972;-45
2023/04/09 07:54:47;;;;;;;34.73;31.20;;;;;;;7.08;100.00;102839.34;5012903;28;20445;-44
2023/04/09 07:57:15;;;;;;;34.40;30.73;;;;;;;7.11;100.00;102837.31;5013753;28;21052;-43
2023/04/09 07:59:43;;;;;;;35.40;31.70;;;;;;;7.14;100.00;102834.41;5012991;28;20480;-43
2023/04/09 08:02:12;;;;;;;36.20;32.70;;;;;;;7.24;100.00;102842.47;5013403;28;20441;-44
2023/04/09 08:04:42;;;;;;;33.07;29.57;;;;;;;7.31;100.00;102842.84;5012731;28;20938;-44
2023/04/09 08:07:10;;;;;;;32.40;29.10;;;;;;;7.39;100.00;102843.91;5013536;28;20449;-47
2023/04/09 08:09:38;;;;;;;34.47;30.97;;;;;;;7.41;100.00;102835.78;5012761;28;20465;-44
2023/04/09 08:12:05;;;;;;;34.67;31.50;;;;;;;7.38;100.00;102836.06;5013059;28;20429;-45
2023/04/09 08:14:33;;;;;;;32.73;29.53;;;;;;;7.45;100.00;102835.44;5012919;28;20445;-44
2023/04/09 08:17:01;;;;;;;32.70;29.67;;;;;;;7.53;100.00;102845.41;5013148;28;20511;-45
2023/04/09 08:19:30;;;;;;;34.83;31.43;;;;;;;7.52;100.00;102839.28;5010925;28;20480;-46
2023/04/09 08:21:58;;;;;;;34.93;31.50;;;;;;;7.56;100.00;102839.84;5012792;28;20887;-47
2023/04/09 08:24:26;;;;;;;35.20;31.47;;;;;;;7.62;100.00;102840.19;5012857;28;20437;-43
2023/04/09 08:26:53;;;;;;;33.00;29.67;;;;;;;7.64;100.00;102843.59;5012835;28;20492;-47
2023/04/09 08:29:21;;;;;;;34.13;31.10;;;;;;;7.61;100.00;102843.84;5012535;28;20998;-45
2023/04/09 08:31:49;;;;;;;32.67;29.67;;;;;;;7.73;100.00;102842.81;5012399;28;20448;-45
2023/04/09 08:34:19;;;;;;;34.40;31.00;;;;;;;7.77;100.00;102843.38;5012673;28;20540;-45
2023/04/09 08:36:49;;;;;;;35.03;31.73;;;;;;;7.88;100.00;102845.16;5012763;28;20455;-46
2023/04/09 08:39:19;;;;;;;37.53;33.20;;;;;;;7.80;100.00;102853.75;5012172;28;20548;-44
2023/04/09 08:41:47;;;;;;;36.37;32.97;;;;;;;7.83;100.00;102842.88;5012656;28;20613;-45
2023/04/09 08:44:15;;;;;;;35.90;32.30;;;;;;;7.88;100.00;102846.03;4993460;28;20438;-44
2023/04/09 08:46:43;;;;;;;36.10;32.60;;;;;;;7.87;100.00;102852.28;5007097;28;20434;-47
2023/04/09 08:49:11;;;;;;;37.63;33.73;;;;;;;7.77;100.00;102851.34;5012095;28;20465;-48
2023/04/09 08:51:39;;;;;;;36.13;32.77;;;;;;;7.86;100.00;102847.94;5012544;28;20452;-47
2023/04/09 08:54:08;;;;;;;38.17;34.83;;;;;;;7.84;100.00;102849.88;5012187;28;20433;-51
2023/04/09 08:56:38;;;;;;;36.80;33.37;;;;;;;7.85;100.00;102837.47;5012255;28;20527;-43
2023/04/09 08:59:06;;;;;;;35.67;31.97;;;;;;;7.96;100.00;102838.25;5011779;28;20475;-44
2023/04/09 09:01:33;;;;;;;34.73;31.73;;;;;;;7.82;100.00;102842.03;5012344;28;20428;-45
2023/04/09 09:04:03;;;;;;;35.83;32.37;;;;;;;7.98;100.00;102838.94;5012130;28;20429;-51
2023/04/09 09:06:34;;;;;;;34.33;30.97;;;;;;;8.09;100.00;102848.69;5012348;28;20445;-45
2023/04/09 09:09:04;;;;;;;34.03;31.03;;;;;;;8.21;100.00;102842.34;5012102;28;20465;-48
2023/04/09 09:11:34;;;;;;;32.27;29.70;;;;;;;8.39;100.00;102832.81;5012159;28;20448;-50
2023/04/09 09:14:03;;;;;;;33.50;30.43;;;;;;;8.75;100.00;102836.78;5012353;28;20425;-48
2023/04/09 09:16:32;;;;;;;34.30;31.00;;;;;;;8.75;100.00;102831.47;5010894;28;20444;-50
2023/04/09 09:19:00;;;;;;;36.47;33.50;;;;;;;8.84;100.00;102823.50;5010300;28;20461;-51
2023/04/09 09:21:29;;;;;;;36.07;33.03;;;;;;;8.61;100.00;102821.16;5011960;28;20469;-46
2023/04/09 09:23:57;;;;;;;36.50;33.40;;;;;;;8.58;100.00;102819.59;5012254;28;20839;-47
2023/04/09 09:26:27;;;;;;;35.30;32.30;;;;;;;9.09;100.00;102822.16;5012688;28;20437;-48
2023/04/09 09:28:58;;;;;;;32.20;29.67;;;;;;;9.38;100.00;102812.41;5011482;28;20503;-45
2023/04/09 09:31:26;;;;;;;33.10;30.40;;;;;;;9.68;100.00;102813.25;5012020;28;20516;-49
2023/04/09 09:33:54;;;;;;;32.90;30.27;;;;;;;9.88;100.00;102799.81;5012178;28;20437;-45
2023/04/09 09:36:32;;;;;;;32.17;29.77;;;;;;;9.81;100.00;102805.84;5011964;28;20421;-47
2023/04/09 09:39:08;;;;;;;34.13;31.13;;;;;;;9.73;100.00;102809.22;5009210;28;20479;-46
2023/04/09 09:41:37;;;;;;;33.57;30.77;;;;;;;9.73;100.00;102808.38;5008201;28;20482;-46
2023/04/09 09:44:06;;;;;;;31.37;28.83;;;;;;;9.38;100.00;102798.25;5010560;28;20425;-47
2023/04/09 09:46:37;;;;;;;34.80;31.80;;;;;;;9.59;100.00;102806.94;5010285;28;20432;-51
2023/04/09 09:49:05;;;;;;;32.93;30.33;;;;;;;10.14;100.00;102797.41;5008379;28;20473;-46
2023/04/09 09:51:36;;;;;;;31.60;28.93;;;;;;;10.15;100.00;102798.25;5010902;28;20977;-48
2023/04/09 09:54:07;;;;;;;31.80;28.90;;;;;;;9.66;100.00;102793.91;5010470;28;20962;-48
2023/04/09 09:56:36;;;;;;;32.43;29.53;;;;;;;10.01;100.00;102787.00;5010919;28;20437;-49
2023/04/09 09:59:15;;;;;;;33.93;30.83;;;;;;;10.11;100.00;102783.47;5011573;28;20487;-47
2023/04/09 10:01:44;;;;;;;34.17;31.03;;;;;;;10.00;100.00;102787.16;5011775;28;20468;-53
2023/04/09 10:04:15;;;;;;;35.43;32.00;;;;;;;10.02;100.00;102775.38;5012012;28;20812;-45
2023/04/09 10:06:44;;;;;;;33.17;30.37;;;;;;;10.20;100.00;102769.31;5011914;28;20436;-50
2023/04/09 10:09:12;;;;;;;30.47;27.87;;;;;;;10.32;100.00;102766.34;5011408;28;20460;-45
2023/04/09 10:11:44;;;;;;;32.03;29.30;;;;;;;10.45;100.00;102761.50;5011523;28;20435;-49
2023/04/09 10:14:13;;;;;;;29.87;27.43;;;;;;;10.81;100.00;102762.44;5013373;28;20441;-48
2023/04/09 10:16:42;;;;;;;29.27;26.83;;;;;;;10.73;100.00;102764.19;5015904;28;20425;-51
2023/04/09 10:19:12;;;;;;;31.20;28.40;;;;;;;10.92;100.00;102756.91;5015425;28;20518;-50
2023/04/09 10:21:46;;;;;;;29.40;26.90;;;;;;;10.88;100.00;102765.38;5015504;28;20575;-45
2023/04/09 10:24:15;;;;;;;29.00;26.70;;;;;;;10.96;100.00;102752.13;5015741;28;20437;-50
2023/04/09 10:26:44;;;;;;;25.97;24.00;;;;;;;11.16;100.00;102751.00;5015881;28;20440;-52
2023/04/09 10:29:15;;;;;;;28.90;26.73;;;;;;;11.24;100.00;102751.06;5013810;28;20471;-47
2023/04/09 10:31:52;;;;;;;27.50;25.20;;;;;;;11.23;100.00;102743.22;5015429;28;20439;-47
2023/04/09 10:34:22;;;;;;;27.50;24.97;;;;;;;11.14;100.00;102744.13;5015492;28;20479;-49
2023/04/09 10:36:52;;;;;;;26.67;24.47;;;;;;;11.23;100.00;102737.88;5015380;28;20476;-50
2023/04/09 10:39:20;;;;;;;28.13;25.50;;;;;;;11.43;100.00;102731.38;5010542;28;21126;-48
2023/04/09 10:41:49;;;;;;;26.83;24.40;;;;;;;11.56;100.00;102724.63;5015467;28;20983;-47
2023/04/09 10:44:22;;;;;;;25.30;23.23;;;;;;;11.52;100.00;102720.63;5015018;28;20440;-46
2023/04/09 10:46:53;;;;;;;27.20;24.90;;;;;;;11.56;100.00;102724.63;5015389;28;20890;-48
2023/04/09 10:49:22;;;;;;;25.50;23.33;;;;;;;11.61;100.00;102722.38;5010516;28;20947;-49
2023/04/09 10:51:52;;;;;;;27.90;25.50;;;;;;;11.62;100.00;102724.03;5015169;28;20429;-49
2023/04/09 10:54:44;;;;;;;25.43;23.33;;;;;;;11.75;100.00;102723.66;5015410;28;20788;-48
2023/04/09 10:57:23;;;;;;;23.23;21.17;;;;;;;11.64;100.00;102718.53;5015073;28;20465;-49
2023/04/09 10:59:53;;;;;;;21.93;20.10;;;;;;;11.70;100.00;102709.94;5014514;28;20464;-47
2023/04/09 11:02:53;;;;;;;19.80;18.30;;;;;;;11.88;100.00;102709.88;5015149;28;20477;-50
2023/04/09 11:05:35;;;;;;;19.90;18.33;;;;;;;11.70;100.00;102703.75;5006767;28;20455;-44
2023/04/09 11:08:09;;;;;;;18.90;17.50;;;;;;;11.62;100.00;102696.44;5014648;28;20449;-48
2023/04/09 11:10:37;;;;;;;16.73;15.63;;;;;;;11.54;100.00;102701.75;5014328;28;20543;-48
2023/04/09 11:13:05;;;;;;;13.83;12.83;;;;;;;11.79;100.00;102700.97;5014403;28;20428;-51
2023/04/09 11:15:36;;;;;;;13.80;12.70;;;;;;;12.02;98.57;102698.59;5014962;28;20425;-49